Gordon V.sr. — WDB8505 — position and weather

sailwx.info

Track history (hours):
 
Tides and Currents Weather Stations Pressure Air Temp Water Temp Dewpoint Dewpoint Depression Visibility Wind Speed Wind Dir Waves Ship Positions

Gordon V.sr.

Owner: B&G TOWING L.L.C., Lafitte, LA. More information available from US FCC via Universal Licensing System and Coast Guard Vessel Documentation Center.

Last reported at 2015-May-25 16:22 UTC. Time now 2015-May-25 23:36 UTC.
Position N 29°57' W 090°01'.

MMSI: 365910942.

Date/timePositionNaut miles runAvg speedWind from/ knotsBaromVisibWave heightAir tempDewpointWater temp
2015-May-25 16:22N 29°57' W 090°01'0 0.4
2015-May-25 15:32N 29°57' W 090°01'0 0.1
2015-May-25 13:31N 29°57' W 090°01'0 0.1
2015-May-25 12:20N 29°57' W 090°01'1 0.4
2015-May-25 09:12N 29°56' W 089°59'2 0.1
2015-May-24 21:27N 29°57' W 090°01'0 0.1
2015-May-24 19:23N 29°57' W 090°01'0 0.0
2015-May-24 18:10N 29°57' W 090°01'0 0.1
2015-May-24 15:32N 29°57' W 090°01'0 0.1
2015-May-24 13:06N 29°57' W 090°01'0 0.6
2015-May-24 12:29N 29°57' W 090°01'0 0.0
2015-May-24 11:15N 29°57' W 090°01'2 1.8
2015-May-24 10:25N 29°56' W 089°59'2 1.8
2015-May-24 09:30N 29°57' W 090°01'1 1.0
2015-May-24 08:30N 29°56' W 089°60'1 0.5
2015-May-24 07:24N 29°56' W 089°59'0 0.2
2015-May-24 06:28N 29°56' W 089°59'0 0.2
2015-May-24 05:33N 29°56' W 089°59'0 0.0
2015-May-24 04:30N 29°56' W 089°59'0 0.0
2015-May-24 03:32N 29°56' W 089°59'0 0.3
2015-May-24 02:33N 29°56' W 089°60'0 0.1
2015-May-24 01:34N 29°56' W 089°59'0 0.1
2015-May-24 00:30N 29°56' W 089°59'1 1.5
2015-May-23 23:33N 29°57' W 090°01'0 0.1
2015-May-23 22:31N 29°57' W 090°01'0 0.3
2015-May-23 21:28N 29°57' W 090°01'0 0.1
2015-May-23 20:33N 29°57' W 090°01'0 0.0
2015-May-23 19:33N 29°57' W 090°01'0 0.4
2015-May-23 18:27N 29°57' W 090°01'0 0.0
2015-May-23 17:32N 29°57' W 090°01'1 0.1
2015-May-23 03:23N 29°57' W 089°60'0 0.1
2015-May-23 02:05N 29°56' W 089°60'1 1.4
2015-May-23 01:15N 29°57' W 090°01'0 0.2
2015-May-23 00:25N 29°57' W 090°01'0 0.2
2015-May-22 23:32N 29°57' W 090°01'1 1.2
2015-May-22 22:25N 29°56' W 089°59'0 0.1
2015-May-22 21:24N 29°56' W 089°59'2 1.6
2015-May-22 20:19N 29°57' W 090°01'1 0.6
2015-May-22 19:26N 29°57' W 090°01'1 1.3
2015-May-22 18:22N 29°56' W 089°59'0 0.1
2015-May-22 17:31N 29°56' W 089°59'1 1.1
2015-May-22 16:27N 29°57' W 090°01'0 0.0
2015-May-22 15:27N 29°57' W 090°01'0 0.0
2015-May-22 14:32N 29°57' W 090°01'1 0.8
2015-May-22 13:32N 29°57' W 089°60'1 1.0
2015-May-22 12:32N 29°57' W 090°01'0 0.2
2015-May-22 11:15N 29°56' W 090°01'0 0.0
2015-May-22 10:32N 29°56' W 090°01'0 0.0
2015-May-22 09:32N 29°56' W 090°01'0 0.0
2015-May-22 08:26N 29°56' W 090°01'0 0.0
2015-May-22 07:20N 29°56' W 090°01'3 0.2
2015-May-21 15:20N 29°57' W 090°04'2 2.8
2015-May-21 14:33N 29°55' W 090°05'1 0.7
2015-May-21 13:32N 29°55' W 090°04'3 2.9
2015-May-21 12:31N 29°57' W 090°02'1 0.1
2015-May-20 17:29N 29°57' W 090°01'0 0.0
2015-May-20 14:18N 29°57' W 090°01'0 0.0
2015-May-20 12:29N 29°57' W 090°01'0 0.1
2015-May-20 11:27N 29°57' W 090°01'3 0.3
2015-May-20 02:18N 29°55' W 089°58'0 0.0
2015-May-20 01:30N 29°55' W 089°58'5 0.2
2015-May-19 05:17N 29°59' W 090°01'5 6.4
2015-May-19 04:25N 30°01' W 089°55'7 2.0
2015-May-19 01:14N 29°58' W 090°02'1 0.7
2015-May-19 00:29N 29°57' W 090°01'1 0.7
2015-May-18 23:15N 29°57' W 090°01'1 1.1
2015-May-18 22:31N 29°56' W 089°60'0 0.3
2015-May-18 21:21N 29°56' W 089°59'0 0.0
2015-May-18 20:33N 29°56' W 089°59'0 0.0
2015-May-18 19:21N 29°56' W 089°59'0 0.0
2015-May-18 18:22N 29°56' W 089°59'0 0.0
2015-May-18 17:24N 29°56' W 089°59'0 0.0
2015-May-18 16:31N 29°56' W 089°59'0 0.0
2015-May-18 15:33N 29°56' W 089°59'0 0.1
2015-May-18 14:31N 29°56' W 089°59'0 0.1
2015-May-18 13:26N 29°56' W 089°59'1 0.6
2015-May-18 12:32N 29°57' W 089°60'1 0.1
2015-May-17 23:27N 29°57' W 090°01'3 1.2
2015-May-17 21:10N 29°56' W 090°04'2 3.3
2015-May-17 20:28N 29°57' W 090°02'2 2.6
2015-May-17 19:31N 29°56' W 089°59'0 0.0
2015-May-17 18:25N 29°56' W 089°59'1 0.6
2015-May-17 17:30N 29°57' W 089°60'0 0.0
2015-May-17 11:06N 29°56' W 090°00'1 0.9
2015-May-17 10:22N 29°56' W 089°59'0 0.0
2015-May-17 09:23N 29°56' W 089°59'0 0.0
2015-May-17 08:07N 29°56' W 089°59'0 0.0
2015-May-17 07:24N 29°56' W 089°59'0 0.0
2015-May-17 06:33N 29°56' W 089°59'1 1.1
2015-May-17 05:19N 29°57' W 090°01'1 1.6
2015-May-17 04:29N 29°56' W 089°59'1 0.5
2015-May-17 03:28N 29°57' W 089°60'0 0.1
2015-May-17 02:33N 29°57' W 089°60'1 0.7
2015-May-17 01:32N 29°56' W 089°59'0 0.0
2015-May-17 00:33N 29°56' W 089°59'3 2.7
2015-May-16 23:32N 29°58' W 090°02'5 5.1
2015-May-16 22:32N 30°00' W 089°56'1 0.8
2015-May-16 21:28N 30°00' W 089°57'4 3.1
2015-May-16 20:19N 30°00' W 090°02'1 1.4
2015-May-16 19:32N 29°59' W 090°01'1 1.4
2015-May-16 18:31N 29°58' W 090°02'0 0.0
2015-May-16 17:32N 29°58' W 090°02'2 1.2
2015-May-16 16:18N 29°57' W 090°01'0 0.0
2015-May-16 06:22N 29°57' W 090°01'0 0.0
2015-May-16 05:31N 29°57' W 090°01'0 0.1
2015-May-16 04:23N 29°57' W 090°01'0 0.5
2015-May-16 03:24N 29°56' W 090°01'0 0.0
2015-May-16 02:29N 29°56' W 090°01'0 0.0
2015-May-16 01:11N 29°56' W 090°01'0 0.0
2015-May-16 00:33N 29°56' W 090°01'1 0.6
2015-May-15 23:31N 29°57' W 089°60'0 0.2
2015-May-15 21:32N 29°57' W 090°00'0 0.3
2015-May-15 20:32N 29°56' W 090°01'0 0.3
2015-May-15 19:19N 29°57' W 090°01'0 0.0
2015-May-15 18:33N 29°57' W 090°01'0 0.0
2015-May-15 17:32N 29°57' W 090°01'0 0.2
2015-May-15 16:29N 29°57' W 090°01'  
Track history (hours):
 
Tides and Currents Weather Stations Pressure Air Temp Water Temp Dewpoint Dewpoint Depression Visibility Wind Speed Wind Dir Waves Ship Positions

Gordon V.sr.

Owner: B&G TOWING L.L.C., Lafitte, LA. More information available from US FCC via Universal Licensing System and Coast Guard Vessel Documentation Center.

Last reported at 2015-May-25 16:22 UTC. Time now 2015-May-25 23:36 UTC.
Position N 29°57' W 090°01'.

MMSI: 365910942.

Date/timePositionNaut miles runAvg speedWind from/ knotsBaromVisibWave heightAir tempDewpointWater temp
2015-May-25 16:22N 29°57' W 090°01'0 0.4
2015-May-25 15:32N 29°57' W 090°01'0 0.1
2015-May-25 13:31N 29°57' W 090°01'0 0.1
2015-May-25 12:20N 29°57' W 090°01'1 0.4
2015-May-25 09:12N 29°56' W 089°59'2 0.1
2015-May-24 21:27N 29°57' W 090°01'0 0.1
2015-May-24 19:23N 29°57' W 090°01'0 0.0
2015-May-24 18:10N 29°57' W 090°01'0 0.1
2015-May-24 15:32N 29°57' W 090°01'0 0.1
2015-May-24 13:06N 29°57' W 090°01'0 0.6
2015-May-24 12:29N 29°57' W 090°01'0 0.0
2015-May-24 11:15N 29°57' W 090°01'2 1.8
2015-May-24 10:25N 29°56' W 089°59'2 1.8
2015-May-24 09:30N 29°57' W 090°01'1 1.0
2015-May-24 08:30N 29°56' W 089°60'1 0.5
2015-May-24 07:24N 29°56' W 089°59'0 0.2
2015-May-24 06:28N 29°56' W 089°59'0 0.2
2015-May-24 05:33N 29°56' W 089°59'0 0.0
2015-May-24 04:30N 29°56' W 089°59'0 0.0
2015-May-24 03:32N 29°56' W 089°59'0 0.3
2015-May-24 02:33N 29°56' W 089°60'0 0.1
2015-May-24 01:34N 29°56' W 089°59'0 0.1
2015-May-24 00:30N 29°56' W 089°59'1 1.5
2015-May-23 23:33N 29°57' W 090°01'0 0.1
2015-May-23 22:31N 29°57' W 090°01'0 0.3
2015-May-23 21:28N 29°57' W 090°01'0 0.1
2015-May-23 20:33N 29°57' W 090°01'0 0.0
2015-May-23 19:33N 29°57' W 090°01'0 0.4
2015-May-23 18:27N 29°57' W 090°01'0 0.0
2015-May-23 17:32N 29°57' W 090°01'1 0.1
2015-May-23 03:23N 29°57' W 089°60'0 0.1
2015-May-23 02:05N 29°56' W 089°60'1 1.4
2015-May-23 01:15N 29°57' W 090°01'0 0.2
2015-May-23 00:25N 29°57' W 090°01'0 0.2
2015-May-22 23:32N 29°57' W 090°01'1 1.2
2015-May-22 22:25N 29°56' W 089°59'0 0.1
2015-May-22 21:24N 29°56' W 089°59'2 1.6
2015-May-22 20:19N 29°57' W 090°01'1 0.6
2015-May-22 19:26N 29°57' W 090°01'1 1.3
2015-May-22 18:22N 29°56' W 089°59'0 0.1
2015-May-22 17:31N 29°56' W 089°59'1 1.1
2015-May-22 16:27N 29°57' W 090°01'0 0.0
2015-May-22 15:27N 29°57' W 090°01'0 0.0
2015-May-22 14:32N 29°57' W 090°01'1 0.8
2015-May-22 13:32N 29°57' W 089°60'1 1.0
2015-May-22 12:32N 29°57' W 090°01'0 0.2
2015-May-22 11:15N 29°56' W 090°01'0 0.0
2015-May-22 10:32N 29°56' W 090°01'0 0.0
2015-May-22 09:32N 29°56' W 090°01'0 0.0
2015-May-22 08:26N 29°56' W 090°01'0 0.0
2015-May-22 07:20N 29°56' W 090°01'3 0.2
2015-May-21 15:20N 29°57' W 090°04'2 2.8
2015-May-21 14:33N 29°55' W 090°05'1 0.7
2015-May-21 13:32N 29°55' W 090°04'3 2.9
2015-May-21 12:31N 29°57' W 090°02'1 0.1
2015-May-20 17:29N 29°57' W 090°01'0 0.0
2015-May-20 14:18N 29°57' W 090°01'0 0.0
2015-May-20 12:29N 29°57' W 090°01'0 0.1
2015-May-20 11:27N 29°57' W 090°01'3 0.3
2015-May-20 02:18N 29°55' W 089°58'0 0.0
2015-May-20 01:30N 29°55' W 089°58'5 0.2
2015-May-19 05:17N 29°59' W 090°01'5 6.4
2015-May-19 04:25N 30°01' W 089°55'7 2.0
2015-May-19 01:14N 29°58' W 090°02'1 0.7
2015-May-19 00:29N 29°57' W 090°01'1 0.7
2015-May-18 23:15N 29°57' W 090°01'1 1.1
2015-May-18 22:31N 29°56' W 089°60'0 0.3
2015-May-18 21:21N 29°56' W 089°59'0 0.0
2015-May-18 20:33N 29°56' W 089°59'0 0.0
2015-May-18 19:21N 29°56' W 089°59'0 0.0
2015-May-18 18:22N 29°56' W 089°59'0 0.0
2015-May-18 17:24N 29°56' W 089°59'0 0.0
2015-May-18 16:31N 29°56' W 089°59'0 0.0
2015-May-18 15:33N 29°56' W 089°59'0 0.1
2015-May-18 14:31N 29°56' W 089°59'0 0.1
2015-May-18 13:26N 29°56' W 089°59'1 0.6
2015-May-18 12:32N 29°57' W 089°60'1 0.1
2015-May-17 23:27N 29°57' W 090°01'3 1.2
2015-May-17 21:10N 29°56' W 090°04'2 3.3
2015-May-17 20:28N 29°57' W 090°02'2 2.6
2015-May-17 19:31N 29°56' W 089°59'0 0.0
2015-May-17 18:25N 29°56' W 089°59'1 0.6
2015-May-17 17:30N 29°57' W 089°60'0 0.0
2015-May-17 11:06N 29°56' W 090°00'1 0.9
2015-May-17 10:22N 29°56' W 089°59'0 0.0
2015-May-17 09:23N 29°56' W 089°59'0 0.0
2015-May-17 08:07N 29°56' W 089°59'0 0.0
2015-May-17 07:24N 29°56' W 089°59'0 0.0
2015-May-17 06:33N 29°56' W 089°59'1 1.1
2015-May-17 05:19N 29°57' W 090°01'1 1.6
2015-May-17 04:29N 29°56' W 089°59'1 0.5
2015-May-17 03:28N 29°57' W 089°60'0 0.1
2015-May-17 02:33N 29°57' W 089°60'1 0.7
2015-May-17 01:32N 29°56' W 089°59'0 0.0
2015-May-17 00:33N 29°56' W 089°59'3 2.7
2015-May-16 23:32N 29°58' W 090°02'5 5.1
2015-May-16 22:32N 30°00' W 089°56'1 0.8
2015-May-16 21:28N 30°00' W 089°57'4 3.1
2015-May-16 20:19N 30°00' W 090°02'1 1.4
2015-May-16 19:32N 29°59' W 090°01'1 1.4
2015-May-16 18:31N 29°58' W 090°02'0 0.0
2015-May-16 17:32N 29°58' W 090°02'2 1.2
2015-May-16 16:18N 29°57' W 090°01'0 0.0
2015-May-16 06:22N 29°57' W 090°01'0 0.0
2015-May-16 05:31N 29°57' W 090°01'0 0.1
2015-May-16 04:23N 29°57' W 090°01'0 0.5
2015-May-16 03:24N 29°56' W 090°01'0 0.0
2015-May-16 02:29N 29°56' W 090°01'0 0.0
2015-May-16 01:11N 29°56' W 090°01'0 0.0
2015-May-16 00:33N 29°56' W 090°01'1 0.6
2015-May-15 23:31N 29°57' W 089°60'0 0.2
2015-May-15 21:32N 29°57' W 090°00'0 0.3
2015-May-15 20:32N 29°56' W 090°01'0 0.3
2015-May-15 19:19N 29°57' W 090°01'0 0.0
2015-May-15 18:33N 29°57' W 090°01'0 0.0
2015-May-15 17:32N 29°57' W 090°01'0 0.2
2015-May-15 16:29N 29°57' W 090°01'  

Dump ship's entire track history